createdAt,value
2022-08-21T00:01:46.868Z,24.8
2022-08-21T00:11:48.719Z,24.7
2022-08-21T00:21:51.070Z,24.7
2022-08-21T00:31:53.475Z,24.7
2022-08-21T00:41:55.512Z,24.6
2022-08-21T00:51:57.521Z,24.6
2022-08-21T01:01:59.343Z,24.5
2022-08-21T01:12:01.351Z,24.5
2022-08-21T01:22:03.368Z,24.5
2022-08-21T01:32:05.159Z,24.4
2022-08-21T01:42:07.552Z,24.4
2022-08-21T02:02:12.154Z,24.3
2022-08-21T02:12:14.663Z,24.3
2022-08-21T02:22:16.630Z,24.2
2022-08-21T02:42:20.756Z,24.1
2022-08-21T02:52:23.346Z,24.1
2022-08-21T03:02:26.694Z,24
2022-08-21T03:12:28.538Z,23.9
2022-08-21T03:22:30.790Z,23.9
2022-08-21T03:32:31.900Z,23.8
2022-08-21T03:42:33.643Z,23.8
2022-08-21T03:52:36.094Z,23.7
2022-08-21T04:02:38.289Z,23.7
2022-08-21T04:12:40.336Z,23.6
2022-08-21T04:22:42.405Z,23.5
2022-08-21T04:32:44.066Z,23.5
2022-08-21T04:42:46.203Z,23.4
2022-08-21T04:52:48.666Z,23.4
2022-08-21T05:02:50.572Z,23.3
2022-08-21T05:12:53.185Z,23.3
2022-08-21T05:22:55.648Z,23.3
2022-08-21T05:32:57.557Z,23.2
2022-08-21T05:42:59.640Z,23.2
2022-08-21T05:53:04.442Z,23.2
2022-08-21T06:03:04.331Z,23.2
2022-08-21T06:13:06.114Z,23.2
2022-08-21T06:23:07.803Z,23.3
2022-08-21T06:33:09.966Z,23.3
2022-08-21T06:43:15.051Z,23.4
2022-08-21T06:53:15.034Z,23.6
2022-08-21T07:13:19.023Z,23.8
2022-08-21T07:23:20.710Z,23.9
2022-08-21T07:33:22.370Z,24
2022-08-21T07:43:24.340Z,24.1
2022-08-21T07:53:26.417Z,24.2
2022-08-21T08:03:29.371Z,24.3
2022-08-21T08:13:30.881Z,24.4
2022-08-21T08:33:34.656Z,24.5
2022-08-21T08:43:36.863Z,24.6
2022-08-21T08:53:39.430Z,24.6
2022-08-21T09:03:41.984Z,24.7
2022-08-21T09:13:44.224Z,24.7
2022-08-21T09:53:53.146Z,24.9
2022-08-21T10:03:55.431Z,24.9
2022-08-21T10:13:57.857Z,24.9
2022-08-21T10:24:00.227Z,25
2022-08-21T10:34:02.780Z,25
2022-08-21T10:44:05.302Z,25
2022-08-21T10:54:07.886Z,25
2022-08-21T11:04:09.835Z,25.1
2022-08-21T11:14:12.036Z,25.1
2022-08-21T11:34:16.101Z,25.1
2022-08-21T11:44:18.009Z,25.2
2022-08-21T11:54:20.559Z,25.2
2022-08-21T12:04:23.021Z,25.2
2022-08-21T12:14:24.925Z,25.2
2022-08-21T12:24:27.776Z,25.2
2022-08-21T12:34:29.569Z,25.2
2022-08-21T12:44:31.276Z,25.3
2022-08-21T12:54:33.734Z,25.3
2022-08-21T13:04:36.014Z,25.3
2022-08-21T13:14:38.320Z,25.3
2022-08-21T13:24:42.651Z,25.3
2022-08-21T13:25:06.512Z,25.3
2022-08-21T13:34:51.430Z,25.3
2022-08-21T13:44:52.332Z,25.3
2022-08-21T13:54:54.119Z,25.4
2022-08-21T14:04:55.787Z,25.4
2022-08-21T14:25:00.096Z,25.4
2022-08-21T14:35:02.268Z,25.4
2022-08-21T14:45:04.432Z,25.4
2022-08-21T14:55:06.882Z,25.4
2022-08-21T15:05:08.820Z,25.4
2022-08-21T15:15:10.661Z,25.4
2022-08-21T15:25:13.281Z,25.5
2022-08-21T15:35:15.217Z,25.5
2022-08-21T15:45:17.654Z,25.5
2022-08-21T15:55:19.627Z,25.5
2022-08-21T16:05:22.091Z,25.5
2022-08-21T16:15:24.157Z,25.5
2022-08-21T16:25:26.520Z,25.5
2022-08-21T16:35:28.933Z,25.5
2022-08-21T16:45:33.146Z,25.5
2022-08-21T16:55:32.775Z,25.5
2022-08-21T17:05:35.046Z,25.5
2022-08-21T17:15:36.906Z,25.5
2022-08-21T17:25:39.209Z,25.5
2022-08-21T17:35:41.800Z,25.5
2022-08-21T17:45:44.011Z,25.5
2022-08-21T17:55:46.179Z,25.5
2022-08-21T18:05:48.426Z,25.5
2022-08-21T18:15:50.872Z,25.5
2022-08-21T18:25:53.025Z,25.5
2022-08-21T18:35:55.516Z,25.5
2022-08-21T18:45:58.086Z,25.5
2022-08-21T18:56:04.714Z,25.5
2022-08-21T19:16:04.574Z,25.5
2022-08-21T19:26:06.686Z,25.5
2022-08-21T19:36:09.320Z,25.4
2022-08-21T19:46:11.285Z,25.4
2022-08-21T19:56:13.887Z,25.4
2022-08-21T20:06:16.141Z,25.4
2022-08-21T20:26:19.884Z,25.3
2022-08-21T20:36:22.081Z,25.3
2022-08-21T20:46:24.157Z,25.2
2022-08-21T20:56:26.751Z,25.2
2022-08-21T21:06:28.420Z,25.2
2022-08-21T21:16:30.831Z,25.2
2022-08-21T21:26:35.369Z,25.2
2022-08-21T21:36:35.692Z,25.2
2022-08-21T21:46:37.961Z,25.2
2022-08-21T21:56:40.335Z,25.2
2022-08-21T22:06:42.672Z,25.1
2022-08-21T22:16:44.509Z,25.1
2022-08-21T22:26:46.339Z,25.1
2022-08-21T22:36:50.249Z,25.1
2022-08-21T22:46:50.091Z,25.1
2022-08-21T22:56:51.769Z,25.1
2022-08-21T23:06:53.609Z,25.1
2022-08-21T23:16:56.221Z,25.1
2022-08-21T23:26:58.412Z,25.1
2022-08-21T23:37:00.501Z,25
2022-08-21T23:47:02.642Z,25
2022-08-21T23:57:08.125Z,25
